createdAt,value
2023-04-24T00:02:19.891Z,2.80
2023-04-24T00:04:47.966Z,3.47
2023-04-24T00:07:18.056Z,3.63
2023-04-24T00:09:45.960Z,3.57
2023-04-24T00:12:13.973Z,3.10
2023-04-24T00:14:41.864Z,3.40
2023-04-24T00:17:09.925Z,2.97
2023-04-24T00:19:37.860Z,3.03
2023-04-24T00:22:06.307Z,3.00
2023-04-24T00:24:35.753Z,3.33
2023-04-24T00:27:03.801Z,2.73
2023-04-24T00:29:31.711Z,3.43
2023-04-24T00:31:59.897Z,3.00
2023-04-24T00:34:27.989Z,3.10
2023-04-24T00:36:56.011Z,3.53
2023-04-24T00:39:24.540Z,3.97
2023-04-24T00:41:54.505Z,3.20
2023-04-24T00:44:22.495Z,3.13
2023-04-24T00:46:55.356Z,3.37
2023-04-24T00:49:23.989Z,3.10
2023-04-24T00:51:52.385Z,3.60
2023-04-24T00:54:20.993Z,3.40
2023-04-24T00:56:49.385Z,3.03
2023-04-24T00:59:19.202Z,3.10
2023-04-24T01:01:47.612Z,3.60
2023-04-24T01:04:16.561Z,3.13
2023-04-24T01:06:46.482Z,2.63
2023-04-24T01:09:15.524Z,2.67
2023-04-24T01:11:44.051Z,3.03
2023-04-24T01:14:14.502Z,2.70
2023-04-24T01:16:43.889Z,3.17
2023-04-24T01:19:12.495Z,3.20
2023-04-24T01:21:41.042Z,3.13
2023-04-24T01:24:10.366Z,3.60
2023-04-24T01:26:38.352Z,2.73
2023-04-24T01:29:06.365Z,2.73
2023-04-24T01:31:34.990Z,2.70
2023-04-24T01:34:03.196Z,2.93
2023-04-24T01:36:32.419Z,3.00
2023-04-24T01:39:01.552Z,2.60
2023-04-24T01:41:31.393Z,3.60
2023-04-24T01:44:00.341Z,2.87
2023-04-24T01:46:28.596Z,3.00
2023-04-24T01:48:57.318Z,2.67
2023-04-24T01:51:25.351Z,3.40
2023-04-24T01:53:54.262Z,3.37
2023-04-24T01:56:23.804Z,3.03
2023-04-24T01:58:55.603Z,3.17
2023-04-24T02:01:24.472Z,3.10
2023-04-24T02:03:52.688Z,3.30
2023-04-24T02:06:20.675Z,3.20
2023-04-24T02:08:48.558Z,3.23
2023-04-24T02:11:16.548Z,2.97
2023-04-24T02:13:44.501Z,3.27
2023-04-24T02:16:13.983Z,3.03
2023-04-24T02:18:42.021Z,3.13
2023-04-24T02:21:10.058Z,3.13
2023-04-24T02:23:38.042Z,2.97
2023-04-24T02:26:06.282Z,3.00
2023-04-24T02:28:34.242Z,3.20
2023-04-24T02:31:02.136Z,3.10
2023-04-24T02:33:31.580Z,2.93
2023-04-24T02:35:59.525Z,3.10
2023-04-24T02:38:27.331Z,3.30
2023-04-24T02:40:55.280Z,2.87
2023-04-24T02:43:23.233Z,3.30
2023-04-24T02:45:51.498Z,3.30
2023-04-24T02:48:19.558Z,3.60
2023-04-24T02:50:49.281Z,2.77
2023-04-24T02:53:17.186Z,2.97
2023-04-24T02:55:45.021Z,3.33
2023-04-24T02:58:13.889Z,3.43
2023-04-24T03:00:41.928Z,2.87
2023-04-24T03:03:10.010Z,3.00
2023-04-24T03:05:38.046Z,3.93
2023-04-24T03:08:07.366Z,3.07
2023-04-24T03:10:35.293Z,2.90
2023-04-24T03:13:03.171Z,3.37
2023-04-24T03:15:31.192Z,3.57
2023-04-24T03:17:59.172Z,2.93
2023-04-24T03:20:27.311Z,3.60
2023-04-24T03:22:55.197Z,3.40
2023-04-24T03:25:24.527Z,3.37
2023-04-24T03:27:52.480Z,3.00
2023-04-24T03:30:20.543Z,2.80
2023-04-24T03:32:48.578Z,3.73
2023-04-24T03:35:16.693Z,3.23
2023-04-24T03:37:44.601Z,3.23
2023-04-24T03:40:12.910Z,3.33
2023-04-24T03:42:42.151Z,3.47
2023-04-24T03:45:11.452Z,2.73
2023-04-24T03:47:39.399Z,4.43
2023-04-24T03:50:08.173Z,2.87
2023-04-24T03:52:36.169Z,3.17
2023-04-24T03:55:04.188Z,3.07
2023-04-24T03:57:32.270Z,3.27
2023-04-24T04:00:05.209Z,3.67
2023-04-24T04:02:33.262Z,3.67
2023-04-24T04:05:01.431Z,3.73
2023-04-24T04:07:30.785Z,3.10
2023-04-24T04:09:58.776Z,3.60
2023-04-24T04:12:26.705Z,3.13
2023-04-24T04:14:54.585Z,3.07
2023-04-24T04:17:23.863Z,2.80
2023-04-24T04:19:51.748Z,2.37
2023-04-24T04:22:19.657Z,3.23
2023-04-24T04:24:48.024Z,2.73
2023-04-24T04:27:17.539Z,3.20
2023-04-24T04:29:45.652Z,3.10
2023-04-24T04:32:13.770Z,3.27
2023-04-24T04:34:43.806Z,3.60
2023-04-24T04:37:12.196Z,3.00
2023-04-24T04:39:40.318Z,3.13
2023-04-24T04:42:08.632Z,3.20
2023-04-24T04:44:37.228Z,3.23
2023-04-24T04:47:06.459Z,3.10
2023-04-24T04:49:35.099Z,2.63
2023-04-24T04:52:04.349Z,2.83
2023-04-24T04:54:32.496Z,2.70
2023-04-24T04:57:03.088Z,3.10
2023-04-24T04:59:32.171Z,2.20
2023-04-24T05:02:00.101Z,2.00
2023-04-24T05:04:28.806Z,2.20
2023-04-24T05:06:57.397Z,2.07
2023-04-24T05:09:28.344Z,2.53
2023-04-24T05:11:56.317Z,2.33
2023-04-24T05:14:24.481Z,2.30
2023-04-24T05:16:52.451Z,1.87
2023-04-24T05:19:20.365Z,2.10
2023-04-24T05:21:48.372Z,1.97
2023-04-24T05:24:16.280Z,2.40
2023-04-24T05:26:45.636Z,2.20
2023-04-24T05:29:13.922Z,2.13
2023-04-24T05:31:41.944Z,1.70
2023-04-24T05:34:10.585Z,1.50
2023-04-24T05:36:38.503Z,1.27
2023-04-24T05:39:08.459Z,1.50
2023-04-24T05:41:36.424Z,1.63
2023-04-24T05:44:05.762Z,1.70
2023-04-24T05:46:33.728Z,1.83
2023-04-24T05:49:01.662Z,1.83
2023-04-24T05:51:29.745Z,1.30
2023-04-24T05:53:57.702Z,1.20
2023-04-24T05:56:26.254Z,1.43
2023-04-24T05:58:54.128Z,1.00
2023-04-24T06:01:23.487Z,1.33
2023-04-24T06:03:51.603Z,1.00
2023-04-24T06:06:20.356Z,0.70
2023-04-24T06:08:48.287Z,0.80
2023-04-24T06:11:16.226Z,1.10
2023-04-24T06:13:44.289Z,0.57
2023-04-24T06:16:12.542Z,1.30
2023-04-24T06:18:41.947Z,0.70
2023-04-24T06:21:09.843Z,0.85
2023-04-24T06:23:37.715Z,0.65
2023-04-24T06:26:06.075Z,0.70
2023-04-24T06:28:34.010Z,0.60
2023-04-24T06:31:02.075Z,0.50
2023-04-24T06:33:30.259Z,0.90
2023-04-24T06:35:59.539Z,0.43
2023-04-24T06:38:27.520Z,0.40
2023-04-24T06:40:55.812Z,0.75
2023-04-24T06:43:23.702Z,0.77
2023-04-24T06:45:51.998Z,0.50
2023-04-24T06:48:20.080Z,0.57
2023-04-24T06:50:48.547Z,0.60
2023-04-24T06:53:18.043Z,0.57
2023-04-24T06:55:47.626Z,0.77
2023-04-24T06:58:17.232Z,0.50
2023-04-24T07:00:45.302Z,0.68
2023-04-24T07:03:13.567Z,0.50
2023-04-24T07:05:42.914Z,0.45
2023-04-24T07:08:12.539Z,0.50
2023-04-24T07:10:41.816Z,0.70
2023-04-24T07:13:10.374Z,0.60
2023-04-24T07:15:38.389Z,0.60
2023-04-24T07:18:06.521Z,0.60
2023-04-24T07:20:35.384Z,0.50
2023-04-24T07:23:04.298Z,0.70
2023-04-24T07:25:32.637Z,0.55
2023-04-24T07:28:02.060Z,0.77
2023-04-24T07:30:30.456Z,0.47
2023-04-24T07:32:58.661Z,0.40
2023-04-24T07:35:29.202Z,0.30
2023-04-24T07:37:57.225Z,0.50
2023-04-24T07:40:25.592Z,0.57
2023-04-24T07:42:53.986Z,1.02
2023-04-24T07:45:24.306Z,0.40
2023-04-24T07:47:53.009Z,0.70
2023-04-24T07:50:21.696Z,0.57
2023-04-24T07:52:49.667Z,0.50
2023-04-24T07:55:24.156Z,0.47
2023-04-24T07:57:54.155Z,0.50
2023-04-24T08:00:23.706Z,0.60
2023-04-24T08:02:51.660Z,0.52
2023-04-24T08:05:19.891Z,0.52
2023-04-24T08:07:49.664Z,0.80
2023-04-24T08:10:17.698Z,0.60
2023-04-24T08:12:45.769Z,0.52
2023-04-24T08:15:13.787Z,0.60
2023-04-24T08:21:02.455Z,0.47
2023-04-24T08:23:30.941Z,0.40
2023-04-24T08:25:59.276Z,0.60
2023-04-24T08:28:27.555Z,0.32
2023-04-24T08:30:56.156Z,0.85
2023-04-24T08:33:25.662Z,0.63
2023-04-24T08:35:54.654Z,0.50
2023-04-24T08:38:22.633Z,0.40
2023-04-24T08:40:51.036Z,0.55
2023-04-24T08:43:19.217Z,0.40
2023-04-24T08:45:47.266Z,0.70
2023-04-24T08:48:27.448Z,0.35
2023-04-24T08:51:00.837Z,1.23
2023-04-24T08:53:29.130Z,1.23
2023-04-24T08:55:58.653Z,1.08
2023-04-24T08:58:28.071Z,0.50
2023-04-24T09:00:57.420Z,0.60
2023-04-24T09:03:26.238Z,0.73
2023-04-24T09:05:55.780Z,0.50
2023-04-24T09:08:27.496Z,0.82
2023-04-24T09:10:55.557Z,0.43
2023-04-24T09:13:23.660Z,0.25
2023-04-24T09:15:52.030Z,0.47
2023-04-24T09:18:21.472Z,0.55
2023-04-24T09:21:03.481Z,0.30
2023-04-24T09:23:33.615Z,0.35
2023-04-24T09:26:03.229Z,0.57
2023-04-24T09:28:33.860Z,0.40
2023-04-24T09:31:06.282Z,0.70
2023-04-24T09:33:34.200Z,0.52
2023-04-24T09:36:02.185Z,0.65
2023-04-24T09:38:35.545Z,1.75
2023-04-24T09:41:04.823Z,0.55
2023-04-24T09:43:33.203Z,0.55
2023-04-24T09:46:08.310Z,0.55
2023-04-24T09:48:38.040Z,0.63
2023-04-24T09:51:08.279Z,0.47
2023-04-24T09:53:37.706Z,0.50
2023-04-24T09:56:09.343Z,0.60
2023-04-24T09:58:37.893Z,0.98
2023-04-24T10:01:06.552Z,0.40
2023-04-24T10:03:35.520Z,0.70
2023-04-24T10:06:09.498Z,0.52
2023-04-24T10:08:39.607Z,0.43
2023-04-24T10:11:08.353Z,0.50
2023-04-24T10:13:37.278Z,0.75
2023-04-24T10:16:06.097Z,0.65
2023-04-24T10:18:35.132Z,0.65
2023-04-24T10:21:03.752Z,0.38
2023-04-24T10:23:32.708Z,0.50
2023-04-24T10:26:03.026Z,0.30
2023-04-24T10:28:32.777Z,0.60
2023-04-24T10:31:01.423Z,0.40
2023-04-24T10:33:30.026Z,0.60
2023-04-24T10:35:59.421Z,0.70
2023-04-24T10:38:31.005Z,0.57
2023-04-24T10:41:10.252Z,0.55
2023-04-24T10:43:38.235Z,0.75
2023-04-24T10:46:07.464Z,0.45
2023-04-24T10:48:36.097Z,0.60
2023-04-24T10:51:04.092Z,0.50
2023-04-24T10:53:33.087Z,0.40
2023-04-24T10:56:07.339Z,0.38
2023-04-24T10:58:41.218Z,0.30
2023-04-24T11:01:09.531Z,0.32
2023-04-24T11:03:38.719Z,0.60
2023-04-24T11:06:08.571Z,0.80
2023-04-24T11:08:41.272Z,0.63
2023-04-24T11:11:15.838Z,0.40
2023-04-24T11:14:03.110Z,0.70
2023-04-24T11:16:34.185Z,0.40
2023-04-24T11:19:07.354Z,1.15
2023-04-24T11:21:43.044Z,0.30
2023-04-24T11:24:27.801Z,0.20
2023-04-24T11:26:59.158Z,0.38
2023-04-24T11:29:41.686Z,0.30
2023-04-24T11:32:28.797Z,0.50
2023-04-24T11:34:58.075Z,0.30
2023-04-24T11:37:28.159Z,0.30
2023-04-24T11:39:59.244Z,0.70
2023-04-24T11:42:29.770Z,0.50
2023-04-24T11:44:58.498Z,0.60
2023-04-24T11:47:34.718Z,0.30
2023-04-24T11:50:03.545Z,0.90
2023-04-24T11:52:31.928Z,0.30
2023-04-24T11:55:00.313Z,1.08
2023-04-24T11:57:34.550Z,0.60
2023-04-24T12:00:04.513Z,0.40
2023-04-24T12:02:33.377Z,0.40
2023-04-24T12:05:01.510Z,0.60
2023-04-24T12:07:29.538Z,0.70
2023-04-24T12:10:00.550Z,0.43
2023-04-24T12:12:30.585Z,0.60
2023-04-24T12:15:00.522Z,0.80
2023-04-24T12:17:30.161Z,0.40
2023-04-24T12:20:03.163Z,0.30
2023-04-24T12:22:44.631Z,0.50
2023-04-24T12:25:13.167Z,0.30
2023-04-24T12:27:42.771Z,0.35
2023-04-24T12:30:14.080Z,0.28
2023-04-24T12:32:46.225Z,0.20
2023-04-24T12:35:14.805Z,0.40
2023-04-24T12:37:47.261Z,0.30
2023-04-24T12:40:16.557Z,0.30
2023-04-24T12:42:47.654Z,0.28
2023-04-24T12:45:16.637Z,0.30
2023-04-24T12:47:46.103Z,0.30
2023-04-24T12:50:15.264Z,0.28
2023-04-24T12:52:44.372Z,0.60
2023-04-24T12:55:13.110Z,1.45
2023-04-24T12:57:42.256Z,1.27
2023-04-24T13:00:32.983Z,0.60
2023-04-24T13:03:01.976Z,1.30
2023-04-24T13:05:30.110Z,0.60
2023-04-24T13:07:57.992Z,0.40
2023-04-24T13:10:25.928Z,1.05
2023-04-24T13:12:54.096Z,0.70
2023-04-24T13:15:23.440Z,0.40
2023-04-24T13:17:51.702Z,0.88
2023-04-24T13:20:20.224Z,0.45
2023-04-24T13:22:48.263Z,0.60
2023-04-24T13:25:17.953Z,0.60
2023-04-24T13:27:46.286Z,0.30
2023-04-24T13:30:14.759Z,0.50
2023-04-24T13:32:44.112Z,0.40
2023-04-24T13:35:12.068Z,0.38
2023-04-24T13:37:39.958Z,0.60
2023-04-24T13:40:09.048Z,0.52
2023-04-24T13:42:36.960Z,0.30
2023-04-24T13:45:21.233Z,0.60
2023-04-24T13:47:55.584Z,1.23
2023-04-24T13:50:23.599Z,0.40
2023-04-24T13:52:51.433Z,0.52
2023-04-24T13:55:19.480Z,0.40
2023-04-24T13:57:47.347Z,0.45
2023-04-24T14:00:16.430Z,0.45
2023-04-24T14:02:44.616Z,0.70
2023-04-24T14:05:16.242Z,0.68
2023-04-24T14:07:44.254Z,0.38
2023-04-24T14:10:12.556Z,0.55
2023-04-24T14:12:40.822Z,0.50
2023-04-24T14:15:10.412Z,0.50
2023-04-24T14:17:38.381Z,0.70
2023-04-24T14:20:07.945Z,0.50
2023-04-24T14:22:37.217Z,0.63
2023-04-24T14:25:06.352Z,0.90
2023-04-24T14:27:35.545Z,0.60
2023-04-24T14:30:04.005Z,0.55
2023-04-24T14:32:32.240Z,0.60
2023-04-24T14:35:00.249Z,0.70
2023-04-24T14:37:28.273Z,0.60
2023-04-24T14:40:14.736Z,0.60
2023-04-24T14:42:45.439Z,0.55
2023-04-24T14:45:13.648Z,0.57
2023-04-24T14:47:41.549Z,0.55
2023-04-24T14:50:10.610Z,1.50
2023-04-24T14:52:38.737Z,1.10
2023-04-24T14:55:08.977Z,0.90
2023-04-24T14:57:38.108Z,0.60
2023-04-24T15:00:09.572Z,0.55
2023-04-24T15:02:41.075Z,0.93
2023-04-24T15:05:10.540Z,0.65
2023-04-24T15:07:38.986Z,0.80
2023-04-24T15:10:09.639Z,0.60
2023-04-24T15:12:38.110Z,0.52
2023-04-24T15:15:07.197Z,1.00
2023-04-24T15:17:35.289Z,0.50
2023-04-24T15:20:04.016Z,0.50
2023-04-24T15:22:31.910Z,0.57
2023-04-24T15:24:59.929Z,0.47
2023-04-24T15:27:29.252Z,0.73
2023-04-24T15:29:57.306Z,0.55
2023-04-24T15:32:25.331Z,0.52
2023-04-24T15:35:04.855Z,0.55
2023-04-24T15:37:35.625Z,0.70
2023-04-24T15:40:05.574Z,0.90
2023-04-24T15:42:35.047Z,1.17
2023-04-24T15:45:03.101Z,1.38
2023-04-24T15:47:31.095Z,0.90
2023-04-24T15:49:59.666Z,0.65
2023-04-24T15:52:27.735Z,0.50
2023-04-24T15:54:55.832Z,1.20
2023-04-24T15:57:23.719Z,0.80
2023-04-24T15:59:53.082Z,0.68
2023-04-24T16:02:21.376Z,0.60
2023-04-24T16:04:50.838Z,0.70
2023-04-24T16:07:19.184Z,0.43
2023-04-24T16:09:47.333Z,0.67
2023-04-24T16:12:15.399Z,0.80
2023-04-24T16:14:43.507Z,0.60
2023-04-24T16:17:12.846Z,1.00
2023-04-24T16:19:40.801Z,0.70
2023-04-24T16:22:08.750Z,0.77
2023-04-24T16:24:36.959Z,0.70
2023-04-24T16:27:05.119Z,0.73
2023-04-24T16:29:33.332Z,0.87
2023-04-24T16:32:01.188Z,0.50
2023-04-24T16:34:30.565Z,0.60
2023-04-24T16:36:58.530Z,0.70
2023-04-24T16:39:27.052Z,1.23
2023-04-24T16:41:56.752Z,0.50
2023-04-24T16:44:26.518Z,0.40
2023-04-24T16:46:54.497Z,0.47
2023-04-24T16:49:23.770Z,0.70
2023-04-24T16:51:53.117Z,0.73
2023-04-24T16:54:21.103Z,0.43
2023-04-24T16:56:49.099Z,0.40
2023-04-24T16:59:17.288Z,0.60
2023-04-24T17:01:45.711Z,0.60
2023-04-24T17:04:13.745Z,0.70
2023-04-24T17:06:41.765Z,0.57
2023-04-24T17:09:13.034Z,0.50
2023-04-24T17:11:41.046Z,0.70
2023-04-24T17:14:08.983Z,0.40
2023-04-24T17:16:38.579Z,0.43
2023-04-24T17:19:06.811Z,0.27
2023-04-24T17:21:34.854Z,0.40
2023-04-24T17:24:02.812Z,0.30
2023-04-24T17:26:32.458Z,1.00
2023-04-24T17:29:00.465Z,0.50
2023-04-24T17:31:28.410Z,0.50
2023-04-24T17:33:56.371Z,0.43
2023-04-24T17:36:24.314Z,0.50
2023-04-24T17:38:53.400Z,0.40
2023-04-24T17:41:21.761Z,1.00
2023-04-24T17:43:51.048Z,0.90
2023-04-24T17:46:19.494Z,0.97
2023-04-24T17:48:49.407Z,0.53
2023-04-24T17:51:17.694Z,1.10
2023-04-24T17:53:45.784Z,0.60
2023-04-24T17:56:15.934Z,0.70
2023-04-24T17:58:43.884Z,1.00
2023-04-24T18:01:13.329Z,0.90
2023-04-24T18:03:41.500Z,0.70
2023-04-24T18:06:10.234Z,0.70
2023-04-24T18:08:38.139Z,0.50
2023-04-24T18:11:06.098Z,0.40
2023-04-24T18:13:34.335Z,0.40
2023-04-24T18:16:02.277Z,0.50
2023-04-24T18:18:31.613Z,0.50
2023-04-24T18:21:04.574Z,0.50
2023-04-24T18:23:39.018Z,0.50
2023-04-24T18:26:07.008Z,0.40
2023-04-24T18:28:35.109Z,0.50
2023-04-24T18:31:03.155Z,0.30
2023-04-24T18:33:32.805Z,0.37
2023-04-24T18:36:01.280Z,0.30
2023-04-24T18:38:29.194Z,0.30
2023-04-24T18:40:57.189Z,0.30
2023-04-24T18:43:25.042Z,0.20
2023-04-24T18:45:53.134Z,0.50
2023-04-24T18:48:21.314Z,0.20
2023-04-24T18:50:50.687Z,0.33
2023-04-24T18:53:18.623Z,0.30
2023-04-24T18:55:46.537Z,0.43
2023-04-24T18:58:15.874Z,0.50
2023-04-24T19:00:43.924Z,0.50
2023-04-24T19:03:12.201Z,0.40
2023-04-24T19:05:40.332Z,0.50
2023-04-24T19:08:09.623Z,0.30
2023-04-24T19:10:37.486Z,0.50
2023-04-24T19:13:05.815Z,0.50
2023-04-24T19:15:34.436Z,0.63
2023-04-24T19:18:02.402Z,0.47
2023-04-24T19:20:30.999Z,0.77
2023-04-24T19:22:59.104Z,0.70
2023-04-24T19:25:29.693Z,0.77
2023-04-24T19:27:57.722Z,0.67
2023-04-24T19:30:25.842Z,0.73
2023-04-24T19:32:53.812Z,0.73
2023-04-24T19:35:22.018Z,0.97
2023-04-24T19:37:49.962Z,1.07
2023-04-24T19:40:18.458Z,0.83
2023-04-24T19:42:48.403Z,0.83
2023-04-24T19:45:16.469Z,1.03
2023-04-24T19:47:44.514Z,1.20
2023-04-24T19:50:12.783Z,0.90
2023-04-24T19:52:40.696Z,0.97
2023-04-24T19:55:09.385Z,1.00
2023-04-24T19:57:37.316Z,1.03
2023-04-24T20:00:08.181Z,1.07
2023-04-24T20:02:36.646Z,0.80
2023-04-24T20:05:05.066Z,1.23
2023-04-24T20:07:33.087Z,1.00
2023-04-24T20:10:01.661Z,0.93
2023-04-24T20:12:29.861Z,0.90
2023-04-24T20:14:57.787Z,1.00
2023-04-24T20:17:27.014Z,1.53
2023-04-24T20:19:54.995Z,0.80
2023-04-24T20:22:22.874Z,0.97
2023-04-24T20:24:51.715Z,1.00
2023-04-24T20:27:20.919Z,1.20
2023-04-24T20:29:48.857Z,1.03
2023-04-24T20:32:16.791Z,1.20
2023-04-24T20:34:47.517Z,0.97
2023-04-24T20:37:15.437Z,1.07
2023-04-24T20:39:44.599Z,1.77
2023-04-24T20:42:13.342Z,1.17
2023-04-24T20:44:41.540Z,1.20
2023-04-24T20:47:09.845Z,1.70
2023-04-24T20:49:37.717Z,1.50
2023-04-24T20:52:09.165Z,1.67
2023-04-24T20:54:37.092Z,1.20
2023-04-24T20:57:05.314Z,1.17
2023-04-24T20:59:33.311Z,1.70
2023-04-24T21:02:01.460Z,1.70
2023-04-24T21:04:29.396Z,1.70
2023-04-24T21:06:57.389Z,1.53
2023-04-24T21:09:26.602Z,1.40
2023-04-24T21:11:54.544Z,1.10
2023-04-24T21:14:22.729Z,1.60
2023-04-24T21:16:50.931Z,1.50
2023-04-24T21:19:19.098Z,1.83
2023-04-24T21:21:47.077Z,1.80
2023-04-24T21:24:14.987Z,1.47
2023-04-24T21:26:44.243Z,1.50
2023-04-24T21:29:12.598Z,1.60
2023-04-24T21:31:40.587Z,1.10
2023-04-24T21:34:08.557Z,1.73
2023-04-24T21:36:36.490Z,1.10
2023-04-24T21:39:04.484Z,1.40
2023-04-24T21:41:32.453Z,1.20
2023-04-24T21:44:01.825Z,1.47
2023-04-24T21:46:29.678Z,1.20
2023-04-24T21:48:57.617Z,1.37
2023-04-24T21:51:25.479Z,1.40
2023-04-24T21:53:53.453Z,1.37
2023-04-24T21:56:21.557Z,1.60
2023-04-24T21:58:49.533Z,1.53
2023-04-24T22:01:19.114Z,1.63
2023-04-24T22:03:47.308Z,1.50
2023-04-24T22:06:16.483Z,1.30
2023-04-24T22:08:47.609Z,1.33
2023-04-24T22:11:25.760Z,1.33
2023-04-24T22:13:54.963Z,1.70
2023-04-24T22:16:25.312Z,1.83
2023-04-24T22:18:55.270Z,1.60
2023-04-24T22:21:23.880Z,1.10
2023-04-24T22:23:52.452Z,1.50
2023-04-24T22:26:20.468Z,1.47
2023-04-24T22:28:48.557Z,1.53
2023-04-24T22:31:16.879Z,1.40
2023-04-24T22:33:47.888Z,1.73
2023-04-24T22:36:16.039Z,1.73
2023-04-24T22:38:44.019Z,1.30
2023-04-24T22:41:12.003Z,1.90
2023-04-24T22:43:40.290Z,1.20
2023-04-24T22:46:08.320Z,1.50
2023-04-24T22:48:36.402Z,1.53
2023-04-24T22:51:06.721Z,1.60
2023-04-24T22:53:36.300Z,1.80
2023-04-24T22:56:04.460Z,1.50
2023-04-24T22:58:33.087Z,2.07
2023-04-24T23:01:01.030Z,2.00
2023-04-24T23:03:29.088Z,1.47
2023-04-24T23:05:57.370Z,1.20
2023-04-24T23:08:26.698Z,1.73
2023-04-24T23:10:54.656Z,1.00
2023-04-24T23:13:22.753Z,1.13
2023-04-24T23:15:52.418Z,1.00
2023-04-24T23:18:22.165Z,1.10
2023-04-24T23:20:50.124Z,1.30
2023-04-24T23:23:18.146Z,1.13
2023-04-24T23:25:47.305Z,1.33
2023-04-24T23:28:15.386Z,1.20
2023-04-24T23:30:43.435Z,1.20
2023-04-24T23:33:11.797Z,0.80
2023-04-24T23:35:39.854Z,1.30
2023-04-24T23:38:07.725Z,0.80
2023-04-24T23:40:35.576Z,1.70
2023-04-24T23:43:08.091Z,1.30
2023-04-24T23:45:37.365Z,1.17
2023-04-24T23:48:05.881Z,1.17
2023-04-24T23:50:34.244Z,0.60
2023-04-24T23:53:02.434Z,1.47
2023-04-24T23:55:30.568Z,1.43
2023-04-24T23:57:58.773Z,1.03
